createdAt,value
2018-08-03T00:01:33.037Z,99.90
2018-08-03T00:04:03.790Z,99.90
2018-08-03T00:06:33.972Z,99.90
2018-08-03T00:09:03.647Z,99.90
2018-08-03T00:11:33.969Z,99.90
2018-08-03T00:14:03.987Z,99.90
2018-08-03T00:16:34.418Z,99.90
2018-08-03T00:19:04.519Z,99.90
2018-08-03T00:21:34.770Z,99.90
2018-08-03T00:24:04.553Z,99.90
2018-08-03T00:26:34.978Z,99.90
2018-08-03T00:29:05.189Z,99.90
2018-08-03T00:31:34.570Z,99.90
2018-08-03T00:34:03.709Z,99.90
2018-08-03T00:36:33.117Z,99.90
2018-08-03T00:39:03.321Z,99.90
2018-08-03T00:41:33.342Z,99.90
2018-08-03T00:44:03.678Z,99.90
2018-08-03T00:46:33.799Z,99.90
2018-08-03T00:49:04.433Z,99.90
2018-08-03T00:51:34.256Z,99.90
2018-08-03T00:54:04.557Z,99.90
2018-08-03T00:56:34.778Z,99.90
2018-08-03T00:59:04.056Z,99.90
2018-08-03T01:01:34.579Z,99.90
2018-08-03T01:06:33.746Z,99.90
2018-08-03T01:09:03.726Z,99.90
2018-08-03T01:11:33.542Z,99.90
2018-08-03T01:14:03.704Z,99.90
2018-08-03T01:16:37.188Z,99.90
2018-08-03T01:19:05.900Z,99.90
2018-08-03T01:21:35.149Z,99.90
2018-08-03T01:24:04.454Z,99.90
2018-08-03T01:26:33.337Z,99.90
2018-08-03T01:29:03.275Z,99.90
2018-08-03T01:31:33.418Z,99.90
2018-08-03T01:34:03.333Z,99.90
2018-08-03T01:36:33.417Z,99.90
2018-08-03T01:39:02.908Z,99.90
2018-08-03T01:41:32.744Z,99.90
2018-08-03T01:44:02.713Z,99.90
2018-08-03T01:46:33.495Z,99.90
2018-08-03T01:49:03.522Z,99.90
2018-08-03T01:51:33.936Z,99.90
2018-08-03T01:54:03.634Z,99.90
2018-08-03T01:56:33.587Z,99.90
2018-08-03T01:59:03.513Z,99.90
2018-08-03T02:01:33.923Z,99.90
2018-08-03T02:04:04.629Z,99.90
2018-08-03T02:09:04.726Z,99.90
2018-08-03T02:11:34.882Z,99.90
2018-08-03T02:14:04.279Z,99.90
2018-08-03T02:16:34.001Z,99.90
2018-08-03T02:19:04.007Z,99.90
2018-08-03T02:21:34.326Z,99.90
2018-08-03T02:24:03.738Z,99.90
2018-08-03T02:29:04.194Z,99.90
2018-08-03T02:31:34.094Z,99.90
2018-08-03T02:34:03.927Z,99.90
2018-08-03T02:36:33.918Z,99.90
2018-08-03T02:39:04.792Z,99.90
2018-08-03T02:41:34.763Z,99.90
2018-08-03T02:44:04.128Z,99.90
2018-08-03T02:46:34.297Z,99.90
2018-08-03T02:49:04.020Z,99.90
2018-08-03T02:51:34.858Z,99.90
2018-08-03T02:54:04.371Z,99.90
2018-08-03T02:56:33.883Z,99.90
2018-08-03T02:59:04.946Z,99.90
2018-08-03T03:01:34.739Z,99.90
2018-08-03T03:04:04.067Z,99.90
2018-08-03T03:06:34.097Z,99.90
2018-08-03T03:09:03.211Z,99.90
2018-08-03T03:11:33.343Z,99.90
2018-08-03T03:14:04.170Z,99.90
2018-08-03T03:16:33.978Z,99.90
2018-08-03T03:19:04.074Z,99.90
2018-08-03T03:24:03.642Z,99.90
2018-08-03T03:26:33.012Z,99.90
2018-08-03T03:29:04.039Z,99.90
2018-08-03T03:31:34.068Z,99.90
2018-08-03T03:34:03.937Z,99.90
2018-08-03T03:36:33.975Z,99.90
2018-08-03T03:39:04.340Z,99.90
2018-08-03T03:41:35.051Z,99.90
2018-08-03T03:44:04.066Z,99.90
2018-08-03T03:46:34.350Z,99.90
2018-08-03T03:49:05.287Z,99.90
2018-08-03T03:51:34.809Z,99.90
2018-08-03T03:54:04.739Z,99.90
2018-08-03T03:56:34.974Z,99.90
2018-08-03T03:59:04.406Z,99.90
2018-08-03T04:01:33.742Z,99.90
2018-08-03T04:04:03.217Z,99.90
2018-08-03T04:06:33.266Z,99.90
2018-08-03T04:09:02.813Z,99.90
2018-08-03T04:11:33.687Z,99.90
2018-08-03T04:14:03.274Z,99.90
2018-08-03T04:16:33.629Z,99.90
2018-08-03T04:19:03.059Z,99.90
2018-08-03T04:21:34.123Z,99.90
2018-08-03T04:24:03.950Z,99.90
2018-08-03T04:26:33.792Z,99.90
2018-08-03T04:29:03.567Z,99.90
2018-08-03T04:31:32.961Z,99.90
2018-08-03T04:36:32.833Z,99.90
2018-08-03T04:39:02.837Z,99.90
2018-08-03T04:41:32.452Z,99.90
2018-08-03T04:44:02.387Z,99.90
2018-08-03T04:46:31.627Z,99.90
2018-08-03T04:49:02.361Z,99.90
2018-08-03T04:51:32.246Z,99.90
2018-08-03T04:54:01.823Z,99.90
2018-08-03T04:56:32.605Z,99.90
2018-08-03T04:59:03.756Z,99.90
2018-08-03T05:01:32.647Z,99.90
2018-08-03T05:04:03.702Z,99.90
2018-08-03T05:06:32.505Z,99.90
2018-08-03T05:09:02.409Z,99.90
2018-08-03T05:11:31.950Z,99.90
2018-08-03T05:14:01.688Z,99.90
2018-08-03T05:16:32.021Z,99.90
2018-08-03T05:19:02.367Z,99.90
2018-08-03T05:24:02.694Z,99.90
2018-08-03T05:26:32.538Z,99.90
2018-08-03T05:29:02.598Z,99.90
2018-08-03T05:31:32.809Z,99.90
2018-08-03T05:34:02.640Z,99.90
2018-08-03T05:36:32.131Z,99.90
2018-08-03T05:39:02.784Z,99.90
2018-08-03T05:41:32.638Z,99.90
2018-08-03T05:44:02.610Z,99.90
2018-08-03T05:46:32.343Z,99.90
2018-08-03T05:49:01.378Z,99.90
2018-08-03T05:51:31.648Z,99.90
2018-08-03T05:54:01.686Z,99.90
2018-08-03T05:56:31.718Z,99.90
2018-08-03T05:59:02.741Z,99.90
2018-08-03T06:01:32.270Z,99.90
2018-08-03T06:04:02.012Z,99.90
2018-08-03T06:06:32.190Z,99.90
2018-08-03T06:09:02.431Z,99.90
2018-08-03T06:14:02.595Z,99.90
2018-08-03T06:16:32.808Z,99.90
2018-08-03T06:19:02.599Z,99.90
2018-08-03T06:21:32.202Z,99.90
2018-08-03T06:24:03.096Z,99.90
2018-08-03T06:26:32.988Z,99.90
2018-08-03T06:29:03.097Z,99.90
2018-08-03T06:31:32.639Z,99.90
2018-08-03T06:34:02.463Z,99.90
2018-08-03T06:36:32.834Z,99.90
2018-08-03T06:39:02.259Z,99.90
2018-08-03T06:41:32.015Z,99.90
2018-08-03T06:44:02.564Z,99.90
2018-08-03T06:46:32.945Z,99.90
2018-08-03T06:51:33.082Z,99.90
2018-08-03T06:54:04.011Z,99.90
2018-08-03T06:56:33.216Z,99.90
2018-08-03T06:59:02.956Z,99.90
2018-08-03T07:01:32.226Z,99.90
2018-08-03T07:04:01.633Z,99.90
2018-08-03T07:06:32.293Z,99.90
2018-08-03T07:09:02.585Z,99.90
2018-08-03T07:11:32.922Z,99.90
2018-08-03T07:14:02.843Z,99.90
2018-08-03T07:16:32.669Z,99.90
2018-08-03T07:19:02.816Z,99.90
2018-08-03T07:21:32.238Z,99.90
2018-08-03T07:24:03.258Z,99.90
2018-08-03T07:26:32.523Z,99.90
2018-08-03T07:29:01.670Z,99.90
2018-08-03T07:34:02.363Z,99.90
2018-08-03T07:36:32.434Z,99.90
2018-08-03T07:39:01.814Z,99.90
2018-08-03T07:41:31.364Z,99.90
2018-08-03T07:44:01.312Z,99.90
2018-08-03T07:46:31.601Z,99.90
2018-08-03T07:49:01.949Z,99.90
2018-08-03T07:51:32.076Z,99.90
2018-08-03T07:54:02.637Z,99.90
2018-08-03T07:59:02.230Z,99.90
2018-08-03T08:01:32.242Z,99.90
2018-08-03T08:04:02.124Z,99.90
2018-08-03T08:06:32.067Z,99.90
2018-08-03T08:09:02.863Z,99.90
2018-08-03T08:11:32.737Z,99.90
2018-08-03T08:14:03.276Z,99.90
2018-08-03T08:16:32.540Z,99.90
2018-08-03T08:19:02.156Z,99.90
2018-08-03T08:21:32.731Z,99.90
2018-08-03T08:24:02.502Z,99.90
2018-08-03T08:26:33.027Z,99.60
2018-08-03T08:29:02.627Z,97.40
2018-08-03T08:31:32.409Z,96.10
2018-08-03T08:34:02.159Z,99.90
2018-08-03T08:36:32.555Z,98.80
2018-08-03T08:39:02.943Z,98.10
2018-08-03T08:41:33.280Z,97.60
2018-08-03T08:44:02.823Z,96.00
2018-08-03T08:46:32.686Z,97.90
2018-08-03T08:49:02.842Z,99.30
2018-08-03T08:51:32.639Z,97.10
2018-08-03T08:54:02.623Z,95.20
2018-08-03T08:56:32.271Z,94.00
2018-08-03T08:59:02.052Z,95.00
2018-08-03T09:01:32.373Z,94.30
2018-08-03T09:04:02.468Z,92.50
2018-08-03T09:06:32.014Z,91.60
2018-08-03T09:09:02.218Z,88.90
2018-08-03T09:11:31.681Z,90.00
2018-08-03T09:14:02.173Z,92.30
2018-08-03T09:16:31.669Z,94.10
2018-08-03T09:19:01.811Z,95.70
2018-08-03T09:21:31.806Z,94.60
2018-08-03T09:24:02.491Z,95.00
2018-08-03T09:26:32.722Z,94.40
2018-08-03T09:29:02.672Z,92.10
2018-08-03T09:31:32.590Z,94.20
2018-08-03T09:34:02.238Z,87.20
2018-08-03T09:36:32.780Z,80.20
2018-08-03T09:39:02.378Z,80.00
2018-08-03T09:44:02.010Z,75.00
2018-08-03T09:46:31.831Z,86.00
2018-08-03T09:49:01.890Z,82.10
2018-08-03T09:51:32.296Z,84.60
2018-08-03T09:54:01.719Z,87.50
2018-08-03T09:56:31.958Z,88.90
2018-08-03T09:59:02.368Z,85.90
2018-08-03T10:01:32.136Z,84.20
2018-08-03T10:06:31.915Z,87.40
2018-08-03T10:09:02.935Z,88.00
2018-08-03T10:11:32.442Z,92.00
2018-08-03T10:14:01.761Z,86.60
2018-08-03T10:16:32.193Z,88.20
2018-08-03T10:19:01.787Z,89.10
2018-08-03T10:21:32.403Z,87.20
2018-08-03T10:24:02.744Z,86.50
2018-08-03T10:26:32.594Z,86.70
2018-08-03T10:29:02.679Z,76.70
2018-08-03T10:31:32.824Z,82.60
2018-08-03T10:34:02.474Z,81.90
2018-08-03T10:39:01.485Z,86.30
2018-08-03T10:41:31.154Z,83.30
2018-08-03T10:44:01.927Z,84.00
2018-08-03T10:46:32.396Z,79.60
2018-08-03T10:49:02.538Z,84.70
2018-08-03T10:51:31.912Z,79.30
2018-08-03T10:54:01.484Z,82.30
2018-08-03T10:56:32.568Z,83.60
2018-08-03T10:59:02.174Z,82.20
2018-08-03T11:01:32.276Z,84.50
2018-08-03T11:04:01.923Z,73.30
2018-08-03T11:06:31.602Z,76.40
2018-08-03T11:09:01.917Z,73.80
2018-08-03T11:11:32.850Z,80.80
2018-08-03T11:14:02.204Z,85.70
2018-08-03T11:16:32.858Z,84.80
2018-08-03T11:19:02.386Z,82.10
2018-08-03T11:21:32.762Z,76.80
2018-08-03T11:24:03.257Z,81.50
2018-08-03T11:26:32.786Z,82.70
2018-08-03T11:29:03.214Z,83.90
2018-08-03T11:31:33.593Z,74.60
2018-08-03T11:34:02.915Z,80.10
2018-08-03T11:36:33.109Z,70.90
2018-08-03T11:39:03.078Z,70.30
2018-08-03T11:41:33.487Z,68.20
2018-08-03T11:44:02.878Z,70.60
2018-08-03T11:46:32.324Z,76.10
2018-08-03T11:49:02.744Z,79.70
2018-08-03T11:51:33.254Z,76.40
2018-08-03T11:54:02.965Z,81.60
2018-08-03T11:56:32.658Z,77.60
2018-08-03T11:59:02.894Z,83.60
2018-08-03T12:01:32.906Z,78.20
2018-08-03T12:04:02.292Z,76.40
2018-08-03T12:06:32.150Z,78.40
2018-08-03T12:09:02.759Z,77.70
2018-08-03T12:14:01.795Z,69.80
2018-08-03T12:16:32.583Z,65.40
2018-08-03T12:19:02.235Z,67.30
2018-08-03T12:21:32.414Z,76.50
2018-08-03T12:24:01.988Z,78.20
2018-08-03T12:26:32.094Z,83.80
2018-08-03T12:29:02.217Z,83.40
2018-08-03T12:31:32.900Z,81.40
2018-08-03T12:34:02.518Z,82.00
2018-08-03T12:36:32.730Z,82.90
2018-08-03T12:41:32.070Z,79.10
2018-08-03T12:44:01.799Z,79.00
2018-08-03T12:46:32.130Z,79.80
2018-08-03T12:49:02.115Z,82.00
2018-08-03T12:51:33.364Z,76.70
2018-08-03T12:54:02.942Z,75.40
2018-08-03T12:56:32.442Z,66.40
2018-08-03T12:59:02.611Z,66.90
2018-08-03T13:01:32.394Z,66.70
2018-08-03T13:04:02.656Z,69.80
2018-08-03T13:06:31.947Z,67.60
2018-08-03T13:09:02.231Z,67.60
2018-08-03T13:11:32.704Z,60.70
2018-08-03T13:14:02.194Z,60.10
2018-08-03T13:16:32.298Z,62.20
2018-08-03T13:19:02.637Z,64.50
2018-08-03T13:21:36.851Z,57.00
2018-08-03T13:24:05.607Z,50.80
2018-08-03T13:26:34.627Z,51.30
2018-08-03T13:29:03.498Z,56.90
2018-08-03T13:31:32.726Z,58.00
2018-08-03T13:34:02.304Z,61.90
2018-08-03T13:36:32.689Z,64.60
2018-08-03T13:39:02.745Z,69.70
2018-08-03T13:41:32.622Z,70.90
2018-08-03T13:44:01.929Z,69.60
2018-08-03T13:49:02.260Z,67.30
2018-08-03T13:51:31.258Z,59.40
2018-08-03T13:54:01.152Z,56.30
2018-08-03T13:56:31.811Z,52.00
2018-08-03T13:59:01.936Z,51.40
2018-08-03T14:01:37.866Z,55.40
2018-08-03T14:04:06.327Z,51.00
2018-08-03T14:06:35.303Z,49.80
2018-08-03T14:09:04.647Z,49.60
2018-08-03T14:11:33.534Z,51.90
2018-08-03T14:14:03.312Z,50.00
2018-08-03T14:16:33.294Z,52.00
2018-08-03T14:19:02.800Z,49.20
2018-08-03T14:21:32.195Z,52.50
2018-08-03T14:24:02.469Z,53.90
2018-08-03T14:26:32.078Z,52.40
2018-08-03T14:29:02.275Z,56.10
2018-08-03T14:31:32.476Z,59.50
2018-08-03T14:34:01.819Z,61.00
2018-08-03T14:36:31.762Z,60.70
2018-08-03T14:39:02.254Z,61.00
2018-08-03T14:41:32.403Z,61.40
2018-08-03T14:44:02.716Z,65.40
2018-08-03T14:46:32.846Z,66.30
2018-08-03T14:49:01.779Z,68.40
2018-08-03T14:51:31.198Z,69.50
2018-08-03T14:54:00.881Z,70.00
2018-08-03T14:59:00.848Z,70.30
2018-08-03T15:01:30.942Z,69.30
2018-08-03T15:04:00.700Z,69.70
2018-08-03T15:06:30.434Z,69.40
2018-08-03T15:09:00.091Z,71.10
2018-08-03T15:11:30.149Z,70.70
2018-08-03T15:14:00.278Z,71.20
2018-08-03T15:16:31.634Z,70.90
2018-08-03T15:19:02.220Z,72.00
2018-08-03T15:21:31.764Z,71.70
2018-08-03T15:24:01.336Z,69.30
2018-08-03T15:26:32.010Z,67.90
2018-08-03T15:29:01.844Z,70.50
2018-08-03T15:31:31.925Z,71.80
2018-08-03T15:34:01.728Z,71.50
2018-08-03T15:36:31.531Z,73.30
2018-08-03T15:39:00.912Z,73.60
2018-08-03T15:41:30.463Z,73.90
2018-08-03T15:44:00.987Z,73.30
2018-08-03T15:46:30.869Z,73.10
2018-08-03T15:49:00.879Z,73.40
2018-08-03T15:51:30.573Z,74.70
2018-08-03T15:54:00.944Z,76.70
2018-08-03T15:56:31.786Z,75.60
2018-08-03T15:59:01.743Z,78.10
2018-08-03T16:01:31.030Z,76.90
2018-08-03T16:04:01.367Z,76.40
2018-08-03T16:06:31.153Z,77.70
2018-08-03T16:09:00.788Z,77.20
2018-08-03T16:11:30.682Z,77.80
2018-08-03T16:14:00.310Z,79.20
2018-08-03T16:19:00.577Z,80.30
2018-08-03T16:21:31.570Z,79.60
2018-08-03T16:24:01.175Z,80.80
2018-08-03T16:26:31.528Z,80.30
2018-08-03T16:31:28.714Z,80.60
2018-08-03T16:33:59.810Z,80.70
2018-08-03T16:36:30.851Z,82.00
2018-08-03T16:39:00.819Z,80.10
2018-08-03T16:41:31.252Z,79.60
2018-08-03T16:44:00.488Z,80.40
2018-08-03T16:46:30.879Z,81.40
2018-08-03T16:49:00.498Z,80.30
2018-08-03T16:51:30.939Z,80.80
2018-08-03T16:54:00.475Z,82.30
2018-08-03T16:56:30.510Z,83.90
2018-08-03T16:59:00.471Z,81.20
2018-08-03T17:01:30.871Z,82.50
2018-08-03T17:06:30.087Z,82.80
2018-08-03T17:09:00.474Z,84.00
2018-08-03T17:11:30.666Z,84.00
2018-08-03T17:14:00.224Z,82.70
2018-08-03T17:16:30.917Z,83.20
2018-08-03T17:19:01.376Z,84.20
2018-08-03T17:21:30.410Z,85.80
2018-08-03T17:23:59.706Z,86.20
2018-08-03T17:26:30.439Z,85.00
2018-08-03T17:29:00.931Z,84.80
2018-08-03T17:31:31.351Z,84.00
2018-08-03T17:34:01.692Z,86.20
2018-08-03T17:36:31.843Z,84.80
2018-08-03T17:39:01.698Z,87.20
2018-08-03T17:41:31.507Z,85.30
2018-08-03T17:44:01.225Z,86.20
2018-08-03T17:46:31.296Z,85.60
2018-08-03T17:49:00.660Z,86.40
2018-08-03T17:51:30.594Z,85.50
2018-08-03T17:54:01.563Z,84.10
2018-08-03T17:56:31.519Z,85.60
2018-08-03T17:59:01.567Z,87.90
2018-08-03T18:01:31.808Z,88.20
2018-08-03T18:04:01.011Z,88.30
2018-08-03T18:06:30.403Z,89.40
2018-08-03T18:09:00.806Z,89.70
2018-08-03T18:11:31.017Z,90.40
2018-08-03T18:14:00.580Z,90.40
2018-08-03T18:16:30.603Z,90.80
2018-08-03T18:19:00.167Z,92.20
2018-08-03T18:21:30.802Z,93.70
2018-08-03T18:24:01.105Z,93.70
2018-08-03T18:26:30.736Z,94.50
2018-08-03T18:29:01.458Z,95.40
2018-08-03T18:31:32.309Z,96.00
2018-08-03T18:39:00.603Z,96.20
2018-08-03T18:41:31.105Z,96.10
2018-08-03T18:44:00.430Z,96.80
2018-08-03T18:46:29.550Z,97.10
2018-08-03T18:48:59.746Z,98.60
2018-08-03T18:51:30.548Z,99.50
2018-08-03T18:54:00.698Z,99.80
2018-08-03T18:56:30.895Z,99.90
2018-08-03T18:59:00.815Z,99.60
2018-08-03T19:01:31.068Z,99.50
2018-08-03T19:06:30.430Z,99.90
2018-08-03T19:08:59.363Z,99.90
2018-08-03T19:11:30.622Z,99.90
2018-08-03T19:14:00.375Z,99.90
2018-08-03T19:16:30.967Z,99.90
2018-08-03T19:19:00.312Z,99.90
2018-08-03T19:21:29.178Z,99.90
2018-08-03T19:23:58.871Z,99.90
2018-08-03T19:26:28.219Z,99.90
2018-08-03T19:28:58.631Z,99.90
2018-08-03T19:31:28.406Z,99.90
2018-08-03T19:33:57.219Z,99.90
2018-08-03T19:36:26.783Z,99.90
2018-08-03T19:38:55.098Z,99.90
2018-08-03T19:41:23.355Z,99.90
2018-08-03T19:43:51.862Z,99.90
2018-08-03T19:46:20.494Z,99.90
2018-08-03T19:48:49.302Z,99.90
2018-08-03T19:53:45.630Z,99.90
2018-08-03T19:56:13.834Z,99.90
2018-08-03T19:58:42.175Z,99.90
2018-08-03T20:01:10.282Z,99.90
2018-08-03T20:03:38.499Z,99.90
2018-08-03T20:06:06.751Z,99.90
2018-08-03T20:08:35.323Z,99.90
2018-08-03T20:11:03.957Z,99.90
2018-08-03T20:13:33.067Z,99.90
2018-08-03T20:16:02.174Z,99.90
2018-08-03T20:18:31.211Z,99.90
2018-08-03T20:21:00.507Z,99.90
2018-08-03T20:23:30.212Z,99.90
2018-08-03T20:25:59.733Z,99.90
2018-08-03T20:28:28.748Z,99.90
2018-08-03T20:30:58.145Z,99.90
2018-08-03T20:33:26.786Z,99.90
2018-08-03T20:35:55.140Z,99.90
2018-08-03T20:38:23.530Z,99.90
2018-08-03T20:40:51.941Z,99.90
2018-08-03T20:43:20.572Z,99.90
2018-08-03T20:48:17.146Z,99.90
2018-08-03T20:50:45.346Z,99.90
2018-08-03T20:53:13.550Z,99.90
2018-08-03T20:55:41.751Z,99.90
2018-08-03T20:58:09.967Z,99.90
2018-08-03T21:00:38.170Z,99.90
2018-08-03T21:03:06.454Z,99.90
2018-08-03T21:05:35.228Z,99.90
2018-08-03T21:08:03.860Z,99.90
2018-08-03T21:10:33.038Z,99.90
2018-08-03T21:13:02.104Z,99.90
2018-08-03T21:18:00.840Z,99.90
2018-08-03T21:20:30.370Z,99.90
2018-08-03T21:23:01.085Z,99.90
2018-08-03T21:25:30.432Z,99.90
2018-08-03T21:27:59.333Z,99.90
2018-08-03T21:30:28.385Z,99.90
2018-08-03T21:32:57.233Z,99.90
2018-08-03T21:35:25.817Z,99.90
2018-08-03T21:37:54.070Z,99.90
2018-08-03T21:40:22.458Z,99.90
2018-08-03T21:42:51.026Z,99.90
2018-08-03T21:45:19.615Z,99.90
2018-08-03T21:47:48.108Z,99.90
2018-08-03T21:50:16.341Z,99.90
2018-08-03T21:52:44.614Z,99.90
2018-08-03T21:55:12.755Z,99.90
2018-08-03T21:57:40.963Z,99.90
2018-08-03T22:00:12.745Z,99.90
2018-08-03T22:02:40.952Z,99.90
2018-08-03T22:05:09.162Z,99.90
2018-08-03T22:07:37.372Z,99.90
2018-08-03T22:12:34.430Z,99.90
2018-08-03T22:15:03.179Z,99.90
2018-08-03T22:17:32.174Z,99.90
2018-08-03T22:20:01.136Z,99.90
2018-08-03T22:25:00.434Z,99.90
2018-08-03T22:27:31.426Z,99.90
2018-08-03T22:30:00.978Z,99.90
2018-08-03T22:32:30.500Z,99.90
2018-08-03T22:34:59.645Z,99.90
2018-08-03T22:39:58.466Z,99.90
2018-08-03T22:42:29.065Z,99.90
2018-08-03T22:44:58.915Z,99.90
2018-08-03T22:47:28.622Z,99.90
2018-08-03T22:49:57.458Z,99.90
2018-08-03T22:52:26.378Z,99.90
2018-08-03T22:54:54.824Z,99.90
2018-08-03T22:57:23.098Z,99.90
2018-08-03T22:59:51.654Z,99.90
2018-08-03T23:02:20.236Z,99.90
2018-08-03T23:04:48.922Z,99.90
2018-08-03T23:07:17.299Z,99.90
2018-08-03T23:09:45.582Z,99.90
2018-08-03T23:12:13.786Z,99.90
2018-08-03T23:14:41.993Z,99.90
2018-08-03T23:17:10.206Z,99.90
2018-08-03T23:19:38.423Z,99.90
2018-08-03T23:22:06.692Z,99.90
2018-08-03T23:24:35.443Z,99.90
2018-08-03T23:27:04.137Z,99.90
2018-08-03T23:29:32.842Z,99.90
2018-08-03T23:32:02.139Z,99.90
2018-08-03T23:34:32.076Z,99.90
2018-08-03T23:37:01.322Z,99.90
2018-08-03T23:39:31.171Z,99.90
2018-08-03T23:42:00.471Z,99.90
2018-08-03T23:44:30.915Z,99.90
2018-08-03T23:47:00.675Z,99.90
2018-08-03T23:49:32.051Z,99.90
2018-08-03T23:52:02.604Z,99.90
2018-08-03T23:54:32.073Z,99.90
2018-08-03T23:57:01.378Z,99.90
2018-08-03T23:59:31.003Z,99.90
